createdAt,value
2017-04-14T00:00:24.320Z,76.24
2017-04-14T00:01:22.165Z,74.14
2017-04-14T00:02:20.142Z,72.85
2017-04-14T00:03:17.947Z,76.96
2017-04-14T00:04:15.905Z,77.52
2017-04-14T00:05:14.619Z,78.81
2017-04-14T00:06:12.436Z,76.85
2017-04-14T00:07:10.340Z,75.11
2017-04-14T00:08:08.197Z,72.67
2017-04-14T00:09:06.104Z,72.43
2017-04-14T00:10:04.116Z,77.74
2017-04-14T00:11:01.964Z,76.98
2017-04-14T00:11:59.861Z,78.42
2017-04-14T00:12:57.680Z,79.53
2017-04-14T00:13:55.517Z,77.08
2017-04-14T00:14:53.372Z,72.32
2017-04-14T00:15:51.225Z,72.90
2017-04-14T00:16:49.105Z,74.79
2017-04-14T00:17:47.009Z,76.37
2017-04-14T00:18:44.817Z,76.12
2017-04-14T00:19:42.623Z,73.87
2017-04-14T00:20:40.424Z,74.21
2017-04-14T00:21:38.216Z,71.58
2017-04-14T00:22:36.438Z,74.78
2017-04-14T00:23:34.325Z,73.08
2017-04-14T00:24:32.161Z,71.31
2017-04-14T00:25:30.068Z,70.79
2017-04-14T00:26:27.888Z,68.93
2017-04-14T00:27:25.828Z,68.36
2017-04-14T00:28:23.687Z,68.52
2017-04-14T00:29:21.537Z,69.00
2017-04-14T00:30:19.439Z,68.48
2017-04-14T00:31:17.320Z,71.50
2017-04-14T00:32:15.389Z,72.21
2017-04-14T00:33:13.308Z,71.02
2017-04-14T00:34:11.236Z,70.42
2017-04-14T00:35:09.420Z,69.50
2017-04-14T00:36:07.307Z,69.71
2017-04-14T00:37:05.268Z,73.38
2017-04-14T00:38:03.385Z,74.47
2017-04-14T00:39:01.514Z,74.08
2017-04-14T00:39:59.461Z,72.02
2017-04-14T00:40:57.457Z,73.36
2017-04-14T00:41:55.420Z,73.43
2017-04-14T00:42:53.234Z,71.63
2017-04-14T00:43:51.277Z,69.90
2017-04-14T00:44:49.087Z,69.33
2017-04-14T00:45:46.995Z,69.12
2017-04-14T00:46:44.841Z,68.59
2017-04-14T00:47:42.937Z,70.39
2017-04-14T00:48:40.759Z,70.86
2017-04-14T00:49:38.608Z,73.50
2017-04-14T00:50:36.421Z,72.65
2017-04-14T00:51:34.210Z,70.49
2017-04-14T00:52:32.142Z,70.62
2017-04-14T00:53:30.036Z,74.22
2017-04-14T00:54:27.825Z,72.16
2017-04-14T00:55:25.637Z,72.32
2017-04-14T00:56:23.453Z,73.06
2017-04-14T00:57:21.413Z,74.28
2017-04-14T00:58:19.250Z,77.10
2017-04-14T00:59:17.146Z,77.99
2017-04-14T01:00:14.988Z,78.13
2017-04-14T01:01:12.960Z,78.10
2017-04-14T01:02:10.972Z,77.11
2017-04-14T01:03:08.780Z,76.81
2017-04-14T01:04:06.616Z,78.36
2017-04-14T01:05:04.465Z,80.74
2017-04-14T01:06:02.301Z,77.79
2017-04-14T01:07:00.169Z,75.32
2017-04-14T01:07:58.003Z,79.08
2017-04-14T01:08:55.939Z,80.21
2017-04-14T01:09:54.313Z,79.46
2017-04-14T01:10:52.247Z,80.54
2017-04-14T01:11:50.173Z,78.11
2017-04-14T01:12:48.213Z,74.74
2017-04-14T01:13:46.052Z,75.59
2017-04-14T01:14:43.899Z,75.85
2017-04-14T01:15:41.748Z,76.96
2017-04-14T01:16:39.606Z,79.03
2017-04-14T01:17:37.698Z,78.63
2017-04-14T01:18:35.547Z,78.34
2017-04-14T01:19:33.885Z,80.25
2017-04-14T01:20:31.873Z,79.20
2017-04-14T01:21:29.810Z,81.18
2017-04-14T01:22:27.676Z,82.49
2017-04-14T01:23:25.593Z,82.07
2017-04-14T01:24:23.416Z,82.38
2017-04-14T01:25:21.260Z,80.73
2017-04-14T01:26:19.095Z,76.97
2017-04-14T01:27:17.133Z,75.58
2017-04-14T01:28:14.935Z,78.06
2017-04-14T01:29:12.840Z,79.96
2017-04-14T01:30:10.711Z,79.50
2017-04-14T01:31:08.526Z,79.50
2017-04-14T01:32:06.507Z,78.94
2017-04-14T01:33:04.344Z,79.91
2017-04-14T01:34:02.206Z,79.75
2017-04-14T01:35:00.110Z,79.94
2017-04-14T01:35:58.104Z,81.72
2017-04-14T01:36:55.940Z,80.87
2017-04-14T01:37:53.768Z,80.28
2017-04-14T01:38:51.645Z,80.59
2017-04-14T01:39:49.607Z,80.81
2017-04-14T01:40:47.476Z,81.74
2017-04-14T01:41:45.319Z,82.78
2017-04-14T01:42:43.247Z,81.96
2017-04-14T01:43:41.112Z,82.61
2017-04-14T01:44:38.969Z,82.68
2017-04-14T01:45:36.862Z,82.42
2017-04-14T01:46:34.684Z,80.98
2017-04-14T01:47:32.696Z,80.97
2017-04-14T01:48:30.568Z,81.63
2017-04-14T01:49:28.435Z,80.13
2017-04-14T01:50:26.275Z,80.39
2017-04-14T01:51:24.132Z,77.55
2017-04-14T01:52:22.086Z,74.80
2017-04-14T01:53:19.927Z,75.60
2017-04-14T01:54:17.823Z,75.22
2017-04-14T01:55:15.625Z,74.92
2017-04-14T01:56:13.659Z,73.45
2017-04-14T01:57:11.561Z,72.34
2017-04-14T01:58:09.410Z,73.96
2017-04-14T01:59:07.404Z,74.11
2017-04-14T02:00:05.280Z,74.22
2017-04-14T02:01:03.266Z,75.85
2017-04-14T02:02:01.135Z,79.33
2017-04-14T02:02:58.954Z,78.92
2017-04-14T02:03:56.820Z,77.69
2017-04-14T02:04:54.660Z,79.18
2017-04-14T02:05:52.615Z,81.57
2017-04-14T02:06:50.486Z,79.83
2017-04-14T02:07:48.405Z,79.22
2017-04-14T02:08:46.270Z,77.89
2017-04-14T02:09:44.151Z,79.92
2017-04-14T02:10:42.105Z,81.96
2017-04-14T02:11:39.984Z,82.13
2017-04-14T02:12:37.828Z,81.60
2017-04-14T02:13:35.660Z,79.36
2017-04-14T02:14:33.553Z,81.57
2017-04-14T02:15:31.399Z,82.26
2017-04-14T02:16:29.337Z,82.62
2017-04-14T02:17:27.189Z,80.58
2017-04-14T02:18:25.052Z,82.62
2017-04-14T02:19:22.888Z,83.92
2017-04-14T02:20:20.711Z,83.18
2017-04-14T02:21:18.654Z,79.87
2017-04-14T02:22:16.481Z,79.57
2017-04-14T02:23:14.432Z,77.89
2017-04-14T02:24:12.356Z,78.75
2017-04-14T02:25:10.196Z,78.13
2017-04-14T02:26:08.289Z,77.63
2017-04-14T02:27:06.116Z,76.43
2017-04-14T02:28:03.976Z,75.58
2017-04-14T02:29:01.819Z,75.18
2017-04-14T02:29:59.714Z,75.66
2017-04-14T02:30:57.530Z,77.48
2017-04-14T02:31:55.360Z,77.93
2017-04-14T02:32:53.343Z,78.88
2017-04-14T02:33:51.217Z,78.86
2017-04-14T02:34:49.133Z,78.64
2017-04-14T02:35:47.019Z,77.93
2017-04-14T02:36:44.921Z,76.58
2017-04-14T02:37:42.723Z,79.30
2017-04-14T02:38:40.521Z,80.73
2017-04-14T02:39:38.416Z,79.93
2017-04-14T02:40:36.275Z,81.26
2017-04-14T02:41:34.199Z,80.11
2017-04-14T02:42:32.028Z,77.71
2017-04-14T02:43:29.981Z,76.02
2017-04-14T02:44:27.977Z,76.51
2017-04-14T02:45:25.802Z,77.17
2017-04-14T02:46:23.616Z,79.60
2017-04-14T02:47:21.467Z,79.98
2017-04-14T02:48:19.416Z,80.70
2017-04-14T02:49:17.280Z,79.20
2017-04-14T02:50:15.231Z,80.75
2017-04-14T02:51:13.100Z,81.14
2017-04-14T02:52:10.948Z,79.64
2017-04-14T02:53:08.802Z,77.48
2017-04-14T02:54:06.684Z,78.59
2017-04-14T02:55:04.595Z,78.63
2017-04-14T02:56:02.400Z,78.48
2017-04-14T02:57:00.555Z,81.68
2017-04-14T02:57:58.431Z,81.92
2017-04-14T02:58:56.293Z,81.95
2017-04-14T02:59:54.169Z,81.27
2017-04-14T03:00:52.128Z,80.52
2017-04-14T03:01:49.985Z,79.98
2017-04-14T03:02:47.813Z,81.04
2017-04-14T03:03:45.648Z,80.26
2017-04-14T03:04:43.504Z,77.66
2017-04-14T03:05:41.307Z,80.36
2017-04-14T03:06:39.252Z,79.82
2017-04-14T03:07:37.116Z,77.90
2017-04-14T03:08:35.148Z,76.40
2017-04-14T03:09:33.011Z,77.01
2017-04-14T03:10:30.869Z,75.36
2017-04-14T03:11:28.787Z,75.00
2017-04-14T03:12:26.631Z,73.17
2017-04-14T03:13:24.460Z,73.78
2017-04-14T03:14:22.289Z,78.76
2017-04-14T03:15:20.173Z,80.12
2017-04-14T03:16:18.019Z,78.76
2017-04-14T03:17:15.935Z,76.24
2017-04-14T03:18:13.796Z,76.00
2017-04-14T03:19:11.687Z,76.17
2017-04-14T03:20:09.686Z,77.01
2017-04-14T03:21:07.529Z,78.00
2017-04-14T03:22:05.363Z,80.87
2017-04-14T03:23:03.218Z,82.02
2017-04-14T03:24:01.151Z,79.54
2017-04-14T03:24:59.009Z,79.38
2017-04-14T03:25:56.837Z,81.51
2017-04-14T03:26:54.800Z,79.78
2017-04-14T03:27:52.635Z,79.36
2017-04-14T03:28:50.474Z,78.75
2017-04-14T03:29:48.361Z,79.05
2017-04-14T03:30:46.269Z,79.16
2017-04-14T03:31:44.056Z,77.99
2017-04-14T03:32:42.035Z,75.99
2017-04-14T03:33:39.912Z,79.10
2017-04-14T03:34:37.829Z,81.24
2017-04-14T03:35:35.740Z,80.96
2017-04-14T03:36:33.588Z,81.94
2017-04-14T03:37:31.388Z,83.00
2017-04-14T03:38:29.231Z,80.29
2017-04-14T03:39:27.160Z,79.38
2017-04-14T03:40:24.998Z,81.40
2017-04-14T03:41:22.855Z,80.01
2017-04-14T03:42:20.829Z,77.06
2017-04-14T03:43:18.698Z,76.76
2017-04-14T03:44:16.578Z,76.29
2017-04-14T03:45:14.415Z,75.25
2017-04-14T03:46:12.393Z,78.84
2017-04-14T03:47:10.204Z,79.33
2017-04-14T03:48:08.015Z,76.55
2017-04-14T03:49:05.965Z,74.82
2017-04-14T03:50:03.875Z,73.80
2017-04-14T03:51:01.771Z,78.83
2017-04-14T03:51:59.600Z,80.23
2017-04-14T03:52:57.475Z,79.56
2017-04-14T03:53:55.340Z,76.43
2017-04-14T03:54:53.178Z,74.34
2017-04-14T03:55:51.126Z,78.80
2017-04-14T03:56:49.013Z,80.13
2017-04-14T03:57:46.941Z,75.72
2017-04-14T03:58:44.791Z,77.90
2017-04-14T03:59:42.673Z,81.30
2017-04-14T04:00:40.504Z,82.45
2017-04-14T04:01:38.352Z,79.44
2017-04-14T04:02:36.296Z,76.61
2017-04-14T04:03:34.133Z,79.92
2017-04-14T04:04:32.088Z,77.70
2017-04-14T04:05:29.920Z,74.79
2017-04-14T04:06:27.796Z,74.59
2017-04-14T04:07:25.692Z,78.91
2017-04-14T04:08:23.617Z,80.58
2017-04-14T04:09:21.492Z,78.00
2017-04-14T04:10:19.366Z,79.94
2017-04-14T04:11:17.320Z,80.72
2017-04-14T04:12:15.143Z,79.20
2017-04-14T04:13:13.060Z,77.11
2017-04-14T04:14:10.944Z,75.74
2017-04-14T04:15:08.833Z,77.71
2017-04-14T04:16:06.671Z,77.61
2017-04-14T04:17:04.561Z,78.09
2017-04-14T04:18:02.461Z,82.75
2017-04-14T04:19:00.289Z,81.12
2017-04-14T04:19:58.204Z,82.50
2017-04-14T04:20:56.088Z,82.94
2017-04-14T04:21:53.903Z,82.79
2017-04-14T04:22:51.875Z,83.94
2017-04-14T04:23:49.723Z,83.29
2017-04-14T04:24:47.655Z,83.36
2017-04-14T04:25:45.500Z,82.16
2017-04-14T04:26:43.365Z,81.08
2017-04-14T04:27:41.248Z,76.86
2017-04-14T04:28:39.227Z,77.75
2017-04-14T04:29:37.066Z,80.32
2017-04-14T04:30:34.907Z,82.41
2017-04-14T04:31:37.352Z,80.52
2017-04-14T04:33:41.536Z,76.83
2017-04-14T04:34:39.364Z,81.15
2017-04-14T04:35:37.191Z,80.22
2017-04-14T04:36:35.002Z,78.62
2017-04-14T04:37:33.013Z,78.62
2017-04-14T04:38:30.807Z,77.36
2017-04-14T04:39:28.742Z,79.82
2017-04-14T04:40:26.621Z,81.38
2017-04-14T04:41:24.515Z,80.29
2017-04-14T04:42:22.474Z,78.25
2017-04-14T04:43:20.340Z,76.84
2017-04-14T04:44:18.249Z,77.32
2017-04-14T04:45:16.113Z,78.86
2017-04-14T04:46:13.999Z,79.88
2017-04-14T04:47:11.921Z,79.69
2017-04-14T04:48:09.748Z,80.54
2017-04-14T04:49:07.616Z,80.01
2017-04-14T04:50:05.420Z,80.71
2017-04-14T04:51:03.469Z,80.80
2017-04-14T04:52:01.296Z,80.37
2017-04-14T04:52:59.214Z,78.64
2017-04-14T04:53:57.079Z,76.02
2017-04-14T04:54:54.956Z,73.48
2017-04-14T04:55:52.840Z,73.01
2017-04-14T04:56:50.688Z,78.66
2017-04-14T04:57:48.646Z,82.46
2017-04-14T04:58:46.492Z,82.16
2017-04-14T04:59:44.417Z,79.00
2017-04-14T05:00:42.271Z,74.73
2017-04-14T05:01:40.129Z,73.59
2017-04-14T05:02:38.003Z,79.28
2017-04-14T05:03:35.832Z,80.34
2017-04-14T05:04:35.455Z,81.01
2017-04-14T05:05:34.435Z,83.24
2017-04-14T05:06:32.348Z,76.29
2017-04-14T05:07:30.172Z,73.34
2017-04-14T05:08:28.124Z,73.77
2017-04-14T05:09:26.005Z,80.63
2017-04-14T05:10:23.948Z,81.27
2017-04-14T05:11:21.760Z,82.73
2017-04-14T05:12:19.761Z,82.34
2017-04-14T05:13:17.608Z,78.60
2017-04-14T05:14:15.438Z,74.91
2017-04-14T05:15:13.372Z,73.44
2017-04-14T05:16:11.285Z,79.74
2017-04-14T05:17:09.104Z,81.80
2017-04-14T05:18:06.977Z,81.76
2017-04-14T05:19:04.852Z,79.91
2017-04-14T05:20:02.689Z,77.16
2017-04-14T05:21:00.512Z,75.07
2017-04-14T05:21:58.480Z,74.69
2017-04-14T05:22:56.364Z,78.27
2017-04-14T05:23:54.378Z,79.92
2017-04-14T05:24:52.266Z,77.75
2017-04-14T05:25:50.144Z,75.22
2017-04-14T05:26:48.044Z,73.63
2017-04-14T05:27:45.893Z,72.85
2017-04-14T05:28:43.726Z,73.56
2017-04-14T05:29:41.584Z,77.78
2017-04-14T05:30:39.507Z,81.61
2017-04-14T05:31:37.336Z,80.88
2017-04-14T05:32:35.352Z,81.24
2017-04-14T05:33:33.185Z,81.52
2017-04-14T05:34:31.089Z,82.11
2017-04-14T05:35:29.020Z,77.69
2017-04-14T05:36:26.837Z,74.70
2017-04-14T05:37:24.789Z,73.73
2017-04-14T05:38:22.647Z,73.42
2017-04-14T05:39:20.568Z,73.66
2017-04-14T05:40:18.423Z,73.84
2017-04-14T05:41:16.296Z,74.23
2017-04-14T05:42:14.267Z,73.83
2017-04-14T05:43:12.142Z,73.10
2017-04-14T05:44:12.657Z,73.48
2017-04-14T05:45:10.548Z,73.81
2017-04-14T05:46:08.378Z,73.93
2017-04-14T05:47:06.196Z,73.44
2017-04-14T05:48:04.013Z,73.38
2017-04-14T05:49:01.875Z,73.66
2017-04-14T05:49:59.735Z,73.24
2017-04-14T05:50:57.585Z,73.98
2017-04-14T05:51:55.484Z,73.81
2017-04-14T05:52:53.335Z,73.98
2017-04-14T05:53:51.185Z,73.71
2017-04-14T05:54:48.999Z,73.90
2017-04-14T05:55:46.936Z,73.62
2017-04-14T05:56:44.851Z,74.46
2017-04-14T05:57:42.742Z,76.74
2017-04-14T05:58:40.575Z,75.14
2017-04-14T05:59:38.400Z,76.03
2017-04-14T06:00:36.391Z,77.37
2017-04-14T06:01:34.249Z,76.88
2017-04-14T06:02:32.320Z,78.21
2017-04-14T06:03:30.158Z,77.17
2017-04-14T06:04:28.022Z,76.30
2017-04-14T06:05:25.851Z,75.87
2017-04-14T06:06:23.729Z,75.84
2017-04-14T06:07:21.600Z,76.53
2017-04-14T06:08:19.396Z,76.24
2017-04-14T06:09:17.393Z,77.75
2017-04-14T06:10:15.262Z,75.70
2017-04-14T06:11:13.151Z,74.36
2017-04-14T06:12:11.021Z,75.22
2017-04-14T06:13:08.848Z,74.87
2017-04-14T06:14:06.741Z,76.07
2017-04-14T06:15:04.602Z,75.64
2017-04-14T06:16:02.559Z,75.05
2017-04-14T06:17:00.407Z,77.24
2017-04-14T06:17:58.249Z,76.60
2017-04-14T06:18:56.223Z,75.27
2017-04-14T06:19:54.055Z,75.34
2017-04-14T06:20:51.964Z,74.41
2017-04-14T06:21:49.795Z,74.78
2017-04-14T06:22:47.718Z,74.96
2017-04-14T06:23:45.584Z,74.98
2017-04-14T06:24:43.433Z,75.00
2017-04-14T06:25:41.369Z,75.12
2017-04-14T06:26:39.217Z,74.83
2017-04-14T06:27:37.097Z,76.17
2017-04-14T06:28:34.927Z,75.54
2017-04-14T06:29:32.890Z,76.90
2017-04-14T06:30:30.827Z,75.26
2017-04-14T06:31:28.631Z,76.42
2017-04-14T06:32:26.540Z,78.05
2017-04-14T06:33:24.334Z,76.14
2017-04-14T06:34:22.347Z,75.52
2017-04-14T06:35:20.288Z,75.20
2017-04-14T06:36:18.280Z,75.11
2017-04-14T06:37:16.108Z,77.10
2017-04-14T06:38:13.920Z,76.46
2017-04-14T06:39:11.812Z,75.29
2017-04-14T06:40:09.734Z,75.10
2017-04-14T06:41:07.568Z,74.67
2017-04-14T06:42:05.377Z,74.49
2017-04-14T06:43:03.188Z,74.62
2017-04-14T06:44:01.019Z,74.52
2017-04-14T06:44:58.851Z,74.57
2017-04-14T06:45:56.696Z,74.54
2017-04-14T06:46:54.553Z,74.57
2017-04-14T06:47:52.373Z,78.73
2017-04-14T06:48:50.220Z,76.94
2017-04-14T06:49:48.060Z,76.19
2017-04-14T06:50:45.988Z,75.23
2017-04-14T06:51:43.872Z,74.88
2017-04-14T06:52:41.719Z,74.77
2017-04-14T06:53:39.607Z,74.68
2017-04-14T06:54:37.452Z,78.58
2017-04-14T06:55:35.294Z,76.08
2017-04-14T06:56:33.176Z,75.09
2017-04-14T06:57:31.020Z,75.01
2017-04-14T06:58:28.931Z,77.71
2017-04-14T06:59:26.829Z,76.67
2017-04-14T07:00:24.766Z,75.89
2017-04-14T07:01:22.599Z,74.70
2017-04-14T07:02:20.447Z,74.68
2017-04-14T07:03:19.088Z,75.01
2017-04-14T07:04:16.972Z,74.91
2017-04-14T07:05:14.911Z,74.90
2017-04-14T07:06:12.772Z,74.94
2017-04-14T07:07:10.586Z,74.96
2017-04-14T07:08:08.461Z,75.09
2017-04-14T07:09:06.960Z,75.25
2017-04-14T07:10:05.010Z,74.57
2017-04-14T07:11:02.872Z,75.12
2017-04-14T07:12:00.700Z,74.75
2017-04-14T07:12:58.629Z,74.89
2017-04-14T07:13:56.433Z,75.22
2017-04-14T07:14:54.341Z,76.16
2017-04-14T07:15:52.187Z,75.04
2017-04-14T07:16:50.124Z,75.21
2017-04-14T07:17:47.977Z,75.89
2017-04-14T07:18:45.842Z,75.59
2017-04-14T07:19:43.763Z,76.58
2017-04-14T07:20:41.659Z,75.29
2017-04-14T07:21:39.481Z,75.03
2017-04-14T07:22:39.800Z,76.35
2017-04-14T07:23:37.650Z,75.17
2017-04-14T07:24:35.488Z,79.31
2017-04-14T07:25:33.344Z,77.66
2017-04-14T07:26:31.178Z,77.83
2017-04-14T07:27:28.960Z,75.34
2017-04-14T07:28:26.769Z,74.80
2017-04-14T07:29:24.727Z,74.94
2017-04-14T07:30:23.716Z,76.20
2017-04-14T07:31:21.614Z,74.92
2017-04-14T07:32:20.080Z,74.93
2017-04-14T07:33:17.919Z,74.41
2017-04-14T07:34:15.748Z,75.39
2017-04-14T07:35:13.612Z,75.51
2017-04-14T07:36:11.451Z,74.61
2017-04-14T07:37:09.280Z,75.65
2017-04-14T07:38:07.135Z,77.44
2017-04-14T07:39:05.801Z,74.75
2017-04-14T07:40:03.680Z,77.25
2017-04-14T07:41:01.481Z,77.25
2017-04-14T07:41:59.470Z,75.42
2017-04-14T07:42:57.760Z,78.47
2017-04-14T07:43:55.637Z,76.35
2017-04-14T07:44:53.489Z,75.10
2017-04-14T07:45:51.362Z,75.36
2017-04-14T07:46:49.141Z,74.23
2017-04-14T07:47:47.016Z,75.92
2017-04-14T07:48:44.881Z,74.21
2017-04-14T07:49:42.739Z,73.87
2017-04-14T07:50:40.584Z,73.65
2017-04-14T07:51:38.411Z,74.23
2017-04-14T07:52:36.244Z,74.97
2017-04-14T07:53:34.235Z,76.88
2017-04-14T07:54:32.107Z,74.90
2017-04-14T07:55:30.011Z,74.18
2017-04-14T07:56:28.116Z,75.01
2017-04-14T07:57:26.144Z,74.10
2017-04-14T07:58:24.361Z,73.77
2017-04-14T07:59:22.352Z,76.17
2017-04-14T08:00:20.320Z,75.13
2017-04-14T08:01:18.205Z,74.09
2017-04-14T08:02:16.058Z,75.48
2017-04-14T08:03:13.933Z,76.02
2017-04-14T08:04:11.752Z,74.62
2017-04-14T08:05:09.621Z,73.90
2017-04-14T08:06:07.480Z,73.54
2017-04-14T08:07:05.252Z,73.49
2017-04-14T08:08:03.149Z,73.76
2017-04-14T08:09:01.000Z,73.76
2017-04-14T08:09:58.856Z,73.21
2017-04-14T08:10:56.776Z,74.34
2017-04-14T08:11:54.724Z,75.84
2017-04-14T08:12:52.994Z,73.83
2017-04-14T08:13:50.821Z,76.02
2017-04-14T08:14:48.635Z,75.88
2017-04-14T08:15:46.503Z,73.90
2017-04-14T08:16:44.485Z,73.47
2017-04-14T08:17:42.294Z,75.07
2017-04-14T08:18:40.257Z,74.11
2017-04-14T08:19:38.259Z,73.61
2017-04-14T08:20:36.316Z,73.07
2017-04-14T08:21:34.136Z,73.05
2017-04-14T08:22:32.087Z,73.38
2017-04-14T08:23:29.972Z,74.78
2017-04-14T08:24:27.845Z,73.55
2017-04-14T08:25:25.728Z,73.71
2017-04-14T08:26:23.778Z,73.86
2017-04-14T08:27:21.620Z,73.66
2017-04-14T08:28:19.491Z,73.60
2017-04-14T08:29:17.576Z,74.34
2017-04-14T08:30:15.448Z,72.92
2017-04-14T08:31:13.338Z,74.67
2017-04-14T08:32:11.164Z,73.85
2017-04-14T08:33:09.091Z,73.45
2017-04-14T08:34:08.444Z,72.75
2017-04-14T08:35:06.305Z,73.26
2017-04-14T08:36:04.239Z,73.19
2017-04-14T08:37:02.131Z,72.97
2017-04-14T08:37:59.907Z,73.53
2017-04-14T08:38:57.752Z,72.64
2017-04-14T08:39:55.642Z,73.45
2017-04-14T08:40:53.606Z,73.41
2017-04-14T08:41:51.492Z,73.91
2017-04-14T08:42:49.353Z,72.88
2017-04-14T08:43:47.190Z,72.94
2017-04-14T08:44:45.027Z,72.74
2017-04-14T08:45:42.879Z,73.15
2017-04-14T08:46:40.736Z,73.62
2017-04-14T08:47:38.568Z,72.82
2017-04-14T08:48:36.472Z,72.48
2017-04-14T08:49:34.320Z,73.51
2017-04-14T08:50:32.185Z,73.60
2017-04-14T08:51:29.968Z,72.69
2017-04-14T08:52:27.825Z,72.50
2017-04-14T08:53:25.679Z,72.15
2017-04-14T08:54:23.488Z,72.66
2017-04-14T08:55:21.454Z,72.90
2017-04-14T08:56:19.314Z,73.40
2017-04-14T08:57:17.188Z,72.96
2017-04-14T08:58:15.069Z,72.10
2017-04-14T08:59:13.292Z,72.04
2017-04-14T09:00:11.255Z,71.89
2017-04-14T09:01:09.102Z,72.03
2017-04-14T09:02:07.004Z,72.56
2017-04-14T09:03:04.849Z,71.67
2017-04-14T09:04:02.840Z,72.32
2017-04-14T09:05:00.721Z,71.90
2017-04-14T09:05:58.551Z,71.53
2017-04-14T09:06:56.440Z,72.05
2017-04-14T09:07:54.304Z,71.94
2017-04-14T09:08:52.237Z,72.17
2017-04-14T09:09:50.053Z,72.17
2017-04-14T09:10:48.031Z,71.63
2017-04-14T09:11:46.109Z,72.03
2017-04-14T09:12:43.957Z,72.20
2017-04-14T09:13:43.876Z,71.51
2017-04-14T09:14:41.720Z,71.44
2017-04-14T09:15:39.563Z,71.54
2017-04-14T09:16:37.458Z,71.74
2017-04-14T09:17:35.317Z,71.43
2017-04-14T09:18:33.292Z,71.06
2017-04-14T09:19:31.528Z,70.86
2017-04-14T09:20:29.416Z,70.63
2017-04-14T09:21:27.572Z,70.79
2017-04-14T09:22:25.429Z,71.26
2017-04-14T09:23:23.356Z,70.88
2017-04-14T09:24:21.227Z,71.08
2017-04-14T09:25:19.174Z,71.17
2017-04-14T09:26:17.080Z,70.79
2017-04-14T09:27:14.961Z,70.82
2017-04-14T09:28:12.883Z,70.91
2017-04-14T09:29:10.762Z,70.61
2017-04-14T09:30:08.700Z,71.14
2017-04-14T09:31:06.564Z,71.08
2017-04-14T09:32:04.420Z,70.66
2017-04-14T09:33:02.348Z,70.93
2017-04-14T09:34:00.212Z,70.71
2017-04-14T09:34:58.404Z,70.53
2017-04-14T09:35:56.395Z,70.43
2017-04-14T09:36:54.416Z,70.77
2017-04-14T09:37:52.265Z,70.96
2017-04-14T09:38:50.186Z,70.57
2017-04-14T09:39:48.047Z,72.33
2017-04-14T09:40:45.947Z,70.87
2017-04-14T09:41:43.800Z,70.81
2017-04-14T09:42:41.696Z,70.92
2017-04-14T09:43:39.562Z,70.91
2017-04-14T09:44:37.517Z,72.25
2017-04-14T09:45:35.468Z,70.58
2017-04-14T09:46:34.254Z,70.59
2017-04-14T09:47:32.136Z,71.40
2017-04-14T09:48:30.082Z,70.67
2017-04-14T09:49:29.122Z,70.29
2017-04-14T09:50:28.237Z,70.32
2017-04-14T09:51:26.175Z,70.17
2017-04-14T09:52:24.087Z,70.52
2017-04-14T09:53:21.967Z,70.77
2017-04-14T09:54:19.820Z,70.18
2017-04-14T09:55:17.698Z,70.28
2017-04-14T09:56:15.605Z,70.11
2017-04-14T09:57:13.464Z,70.12
2017-04-14T09:58:11.304Z,69.83
2017-04-14T09:59:09.233Z,70.43
2017-04-14T10:00:07.160Z,69.78
2017-04-14T10:01:05.120Z,70.31
2017-04-14T10:02:03.015Z,70.14
2017-04-14T10:03:00.944Z,69.67
2017-04-14T10:03:58.849Z,70.34
2017-04-14T10:04:56.701Z,70.15
2017-04-14T10:05:54.595Z,70.03
2017-04-14T10:06:52.611Z,69.61
2017-04-14T10:07:50.470Z,69.58
2017-04-14T10:08:48.334Z,69.60
2017-04-14T10:09:46.168Z,69.47
2017-04-14T10:10:43.976Z,70.76
2017-04-14T10:11:42.644Z,70.88
2017-04-14T10:12:40.850Z,69.92
2017-04-14T10:13:38.845Z,70.00
2017-04-14T10:14:36.678Z,69.55
2017-04-14T10:15:35.976Z,69.67
2017-04-14T10:16:33.841Z,69.41
2017-04-14T10:17:31.836Z,69.35
2017-04-14T10:18:29.721Z,69.67
2017-04-14T10:19:27.532Z,69.81
2017-04-14T10:20:25.376Z,69.35
2017-04-14T10:21:23.244Z,69.53
2017-04-14T10:22:21.192Z,69.54
2017-04-14T10:23:19.031Z,69.66
2017-04-14T10:24:16.852Z,69.83
2017-04-14T10:25:14.741Z,70.04
2017-04-14T10:26:12.580Z,69.95
2017-04-14T10:27:10.404Z,69.57
2017-04-14T10:28:08.285Z,69.56
2017-04-14T10:29:06.115Z,69.71
2017-04-14T10:30:04.038Z,69.27
2017-04-14T10:31:02.192Z,69.23
2017-04-14T10:32:00.013Z,69.22
2017-04-14T10:32:57.868Z,69.51
2017-04-14T10:33:55.699Z,69.07
2017-04-14T10:34:53.561Z,69.51
2017-04-14T10:35:51.430Z,68.86
2017-04-14T10:36:49.301Z,68.89
2017-04-14T10:37:47.169Z,68.40
2017-04-14T10:38:45.026Z,68.08
2017-04-14T10:39:42.866Z,68.29
2017-04-14T10:40:41.717Z,67.68
2017-04-14T10:41:40.949Z,68.43
2017-04-14T10:42:38.765Z,68.56
2017-04-14T10:43:36.737Z,68.14
2017-04-14T10:44:34.612Z,68.10
2017-04-14T10:45:32.432Z,68.31
2017-04-14T10:46:31.068Z,68.14
2017-04-14T10:47:28.891Z,67.58
2017-04-14T10:48:26.809Z,67.63
2017-04-14T10:49:24.690Z,67.65
2017-04-14T10:50:22.577Z,67.74
2017-04-14T10:51:20.431Z,67.64
2017-04-14T10:52:18.243Z,67.29
2017-04-14T10:53:16.876Z,66.84
2017-04-14T10:54:15.452Z,66.84
2017-04-14T10:55:13.392Z,66.03
2017-04-14T10:56:11.588Z,66.06
2017-04-14T10:57:09.593Z,68.07
2017-04-14T10:58:07.527Z,66.08
2017-04-14T10:59:05.441Z,66.16
2017-04-14T11:00:03.401Z,66.63
2017-04-14T11:01:01.368Z,65.82
2017-04-14T11:01:59.296Z,64.99
2017-04-14T11:02:57.180Z,66.33
2017-04-14T11:03:55.013Z,65.57
2017-04-14T11:04:52.894Z,64.63
2017-04-14T11:05:50.745Z,64.66
2017-04-14T11:06:48.682Z,64.08
2017-04-14T11:07:46.529Z,63.83
2017-04-14T11:08:44.420Z,63.47
2017-04-14T11:09:42.236Z,62.48
2017-04-14T11:10:40.066Z,62.38
2017-04-14T11:11:37.980Z,61.65
2017-04-14T11:12:35.812Z,62.43
2017-04-14T11:13:33.651Z,62.23
2017-04-14T11:14:32.453Z,61.83
2017-04-14T11:15:30.614Z,61.54
2017-04-14T11:16:28.556Z,61.64
2017-04-14T11:17:26.478Z,62.28
2017-04-14T11:18:24.467Z,61.67
2017-04-14T11:19:22.380Z,61.47
2017-04-14T11:20:20.260Z,61.47
2017-04-14T11:21:18.202Z,61.54
2017-04-14T11:22:16.081Z,61.78
2017-04-14T11:23:13.938Z,61.41
2017-04-14T11:24:11.961Z,60.14
2017-04-14T11:25:09.807Z,59.92
2017-04-14T11:26:08.170Z,60.54
2017-04-14T11:27:06.046Z,60.39
2017-04-14T11:28:03.888Z,59.88
2017-04-14T11:29:01.753Z,60.80
2017-04-14T11:29:59.611Z,60.98
2017-04-14T11:30:57.495Z,60.53
2017-04-14T11:31:55.449Z,60.13
2017-04-14T11:32:53.409Z,60.22
2017-04-14T11:33:52.495Z,60.88
2017-04-14T11:34:50.356Z,60.95
2017-04-14T11:35:48.639Z,60.82
2017-04-14T11:36:48.084Z,61.68
2017-04-14T11:37:48.452Z,60.87
2017-04-14T11:38:48.279Z,60.86
2017-04-14T11:39:47.220Z,61.43
2017-04-14T11:40:45.069Z,61.52
2017-04-14T11:41:45.234Z,61.15
2017-04-14T11:42:43.737Z,61.01
2017-04-14T11:43:41.569Z,60.73
2017-04-14T11:44:39.386Z,60.88
2017-04-14T11:45:37.228Z,60.83
2017-04-14T11:46:35.119Z,61.05
2017-04-14T11:47:33.440Z,60.33
2017-04-14T11:48:31.297Z,61.20
2017-04-14T11:49:29.144Z,60.91
2017-04-14T11:50:27.014Z,61.64
2017-04-14T11:51:24.907Z,61.01
2017-04-14T11:52:22.812Z,61.75
2017-04-14T11:53:20.644Z,61.57
2017-04-14T11:54:18.668Z,61.80
2017-04-14T11:55:16.597Z,61.82
2017-04-14T11:56:14.821Z,61.81
2017-04-14T11:57:12.726Z,61.99
2017-04-14T11:58:10.677Z,61.94
2017-04-14T11:59:08.516Z,62.45
2017-04-14T12:00:06.402Z,62.10
2017-04-14T12:01:04.304Z,62.23
2017-04-14T12:02:04.397Z,62.78
2017-04-14T12:03:02.637Z,62.58
2017-04-14T12:04:00.476Z,62.75
2017-04-14T12:04:58.413Z,62.69
2017-04-14T12:05:56.325Z,62.72
2017-04-14T12:06:54.176Z,62.37
2017-04-14T12:07:54.048Z,62.43
2017-04-14T12:08:54.176Z,62.18
2017-04-14T12:09:52.138Z,62.13
2017-04-14T12:10:49.950Z,62.45
2017-04-14T12:11:47.879Z,61.66
2017-04-14T12:12:45.907Z,62.66
2017-04-14T12:13:43.769Z,62.56
2017-04-14T12:14:41.619Z,62.11
2017-04-14T12:15:40.829Z,62.36
2017-04-14T12:16:38.668Z,62.62
2017-04-14T12:17:36.553Z,62.38
2017-04-14T12:18:37.162Z,62.36
2017-04-14T12:19:35.111Z,62.55
2017-04-14T12:20:32.993Z,63.43
2017-04-14T12:21:30.870Z,63.09
2017-04-14T12:22:28.740Z,62.31
2017-04-14T12:23:26.612Z,63.49
2017-04-14T12:24:25.121Z,62.68
2017-04-14T12:25:23.818Z,62.88
2017-04-14T12:26:21.700Z,62.54
2017-04-14T12:27:19.625Z,63.80